sensor_id;sensor_type;location;lat;lon;timestamp;temperature;humidity
3348;DHT22;1687;49.540;8.574;2023-06-05T00:01:37;20.40;34.50
3348;DHT22;1687;49.540;8.574;2023-06-05T00:04:03;20.30;34.40
3348;DHT22;1687;49.540;8.574;2023-06-05T00:06:29;20.30;34.40
3348;DHT22;1687;49.540;8.574;2023-06-05T00:08:56;20.20;34.40
3348;DHT22;1687;49.540;8.574;2023-06-05T00:11:22;20.20;34.50
3348;DHT22;1687;49.540;8.574;2023-06-05T00:13:48;20.20;34.50
3348;DHT22;1687;49.540;8.574;2023-06-05T00:16:15;20.20;34.60
3348;DHT22;1687;49.540;8.574;2023-06-05T00:18:41;20.10;34.60
3348;DHT22;1687;49.540;8.574;2023-06-05T00:21:09;20.10;34.60
3348;DHT22;1687;49.540;8.574;2023-06-05T00:23:35;20.10;34.70
3348;DHT22;1687;49.540;8.574;2023-06-05T00:26:01;20.10;34.70
3348;DHT22;1687;49.540;8.574;2023-06-05T00:28:26;20.10;34.80
3348;DHT22;1687;49.540;8.574;2023-06-05T00:30:52;20.00;34.70
3348;DHT22;1687;49.540;8.574;2023-06-05T00:33:18;19.90;34.70
3348;DHT22;1687;49.540;8.574;2023-06-05T00:35:44;19.90;35.20
3348;DHT22;1687;49.540;8.574;2023-06-05T00:38:09;19.90;34.80
3348;DHT22;1687;49.540;8.574;2023-06-05T00:40:36;19.70;34.70
3348;DHT22;1687;49.540;8.574;2023-06-05T00:43:01;19.60;34.80
3348;DHT22;1687;49.540;8.574;2023-06-05T00:45:27;19.50;34.90
3348;DHT22;1687;49.540;8.574;2023-06-05T00:47:53;19.40;35.00
3348;DHT22;1687;49.540;8.574;2023-06-05T00:50:20;19.30;35.00
3348;DHT22;1687;49.540;8.574;2023-06-05T00:52:49;19.20;35.00
3348;DHT22;1687;49.540;8.574;2023-06-05T00:55:15;18.90;35.00
3348;DHT22;1687;49.540;8.574;2023-06-05T00:57:41;18.70;35.10
3348;DHT22;1687;49.540;8.574;2023-06-05T01:00:10;18.60;35.40
3348;DHT22;1687;49.540;8.574;2023-06-05T01:02:38;18.50;35.60
3348;DHT22;1687;49.540;8.574;2023-06-05T01:05:05;18.40;35.50
3348;DHT22;1687;49.540;8.574;2023-06-05T01:07:35;18.30;35.90
3348;DHT22;1687;49.540;8.574;2023-06-05T01:10:05;18.20;35.90
3348;DHT22;1687;49.540;8.574;2023-06-05T01:12:42;18.20;36.20
3348;DHT22;1687;49.540;8.574;2023-06-05T01:15:12;18.00;36.20
3348;DHT22;1687;49.540;8.574;2023-06-05T01:17:38;17.80;36.30
3348;DHT22;1687;49.540;8.574;2023-06-05T01:20:05;17.60;36.50
3348;DHT22;1687;49.540;8.574;2023-06-05T01:22:34;17.40;36.70
3348;DHT22;1687;49.540;8.574;2023-06-05T01:25:00;17.30;37.00
3348;DHT22;1687;49.540;8.574;2023-06-05T01:27:32;17.20;37.10
3348;DHT22;1687;49.540;8.574;2023-06-05T01:32:56;17.00;37.50
3348;DHT22;1687;49.540;8.574;2023-06-05T01:35:29;16.90;37.80
3348;DHT22;1687;49.540;8.574;2023-06-05T01:37:59;16.80;37.90
3348;DHT22;1687;49.540;8.574;2023-06-05T01:40:29;16.80;38.20
3348;DHT22;1687;49.540;8.574;2023-06-05T01:42:56;16.60;38.20
3348;DHT22;1687;49.540;8.574;2023-06-05T01:45:23;16.50;38.40
3348;DHT22;1687;49.540;8.574;2023-06-05T01:47:49;16.50;38.80
3348;DHT22;1687;49.540;8.574;2023-06-05T01:50:16;16.50;38.90
3348;DHT22;1687;49.540;8.574;2023-06-05T01:52:43;16.50;38.90
3348;DHT22;1687;49.540;8.574;2023-06-05T01:55:18;16.50;39.10
3348;DHT22;1687;49.540;8.574;2023-06-05T01:57:49;16.50;39.20
3348;DHT22;1687;49.540;8.574;2023-06-05T02:00:15;16.40;39.30
3348;DHT22;1687;49.540;8.574;2023-06-05T02:02:45;16.40;39.40
3348;DHT22;1687;49.540;8.574;2023-06-05T02:05:12;16.30;39.50
3348;DHT22;1687;49.540;8.574;2023-06-05T02:07:40;16.30;39.60
3348;DHT22;1687;49.540;8.574;2023-06-05T02:10:14;16.20;39.60
3348;DHT22;1687;49.540;8.574;2023-06-05T02:12:41;16.20;39.80
3348;DHT22;1687;49.540;8.574;2023-06-05T02:15:08;16.20;39.90
3348;DHT22;1687;49.540;8.574;2023-06-05T02:17:38;16.10;39.90
3348;DHT22;1687;49.540;8.574;2023-06-05T02:20:05;16.00;40.10
3348;DHT22;1687;49.540;8.574;2023-06-05T02:22:32;15.90;40.10
3348;DHT22;1687;49.540;8.574;2023-06-05T02:24:57;15.80;40.10
3348;DHT22;1687;49.540;8.574;2023-06-05T02:27:23;15.70;40.50
3348;DHT22;1687;49.540;8.574;2023-06-05T02:29:50;15.60;40.40
3348;DHT22;1687;49.540;8.574;2023-06-05T02:32:16;15.50;40.60
3348;DHT22;1687;49.540;8.574;2023-06-05T02:34:42;15.40;40.80
3348;DHT22;1687;49.540;8.574;2023-06-05T02:37:07;15.40;40.80
3348;DHT22;1687;49.540;8.574;2023-06-05T02:39:33;15.40;41.00
3348;DHT22;1687;49.540;8.574;2023-06-05T02:41:59;15.30;41.00
3348;DHT22;1687;49.540;8.574;2023-06-05T02:44:25;15.30;41.10
3348;DHT22;1687;49.540;8.574;2023-06-05T02:46:51;15.20;41.20
3348;DHT22;1687;49.540;8.574;2023-06-05T02:49:17;15.20;41.40
3348;DHT22;1687;49.540;8.574;2023-06-05T02:51:42;15.20;41.50
3348;DHT22;1687;49.540;8.574;2023-06-05T02:54:08;15.20;41.60
3348;DHT22;1687;49.540;8.574;2023-06-05T02:56:34;15.20;41.60
3348;DHT22;1687;49.540;8.574;2023-06-05T02:59:00;15.20;41.70
3348;DHT22;1687;49.540;8.574;2023-06-05T03:01:28;15.20;41.80
3348;DHT22;1687;49.540;8.574;2023-06-05T03:04:02;15.20;41.70
3348;DHT22;1687;49.540;8.574;2023-06-05T03:06:29;15.10;41.80
3348;DHT22;1687;49.540;8.574;2023-06-05T03:08:59;15.10;41.90
3348;DHT22;1687;49.540;8.574;2023-06-05T03:11:25;15.10;42.60
3348;DHT22;1687;49.540;8.574;2023-06-05T03:13:52;15.10;42.20
3348;DHT22;1687;49.540;8.574;2023-06-05T03:16:19;15.10;42.10
3348;DHT22;1687;49.540;8.574;2023-06-05T03:18:44;15.00;42.10
3348;DHT22;1687;49.540;8.574;2023-06-05T03:21:11;15.00;42.30
3348;DHT22;1687;49.540;8.574;2023-06-05T03:23:37;15.00;42.30
3348;DHT22;1687;49.540;8.574;2023-06-05T03:26:02;15.00;42.40
3348;DHT22;1687;49.540;8.574;2023-06-05T03:28:29;14.90;42.40
3348;DHT22;1687;49.540;8.574;2023-06-05T03:30:58;14.80;42.50
3348;DHT22;1687;49.540;8.574;2023-06-05T03:33:24;14.80;42.50
3348;DHT22;1687;49.540;8.574;2023-06-05T03:35:50;14.80;43.20
3348;DHT22;1687;49.540;8.574;2023-06-05T03:38:17;14.80;42.70
3348;DHT22;1687;49.540;8.574;2023-06-05T03:40:43;14.80;42.70
3348;DHT22;1687;49.540;8.574;2023-06-05T03:43:09;14.80;42.80
3348;DHT22;1687;49.540;8.574;2023-06-05T03:45:36;14.80;42.90
3348;DHT22;1687;49.540;8.574;2023-06-05T03:48:03;14.80;42.90
3348;DHT22;1687;49.540;8.574;2023-06-05T03:50:29;14.90;43.00
3348;DHT22;1687;49.540;8.574;2023-06-05T03:52:55;15.00;43.20
3348;DHT22;1687;49.540;8.574;2023-06-05T03:55:32;15.00;43.10
3348;DHT22;1687;49.540;8.574;2023-06-05T03:58:14;15.00;43.10
3348;DHT22;1687;49.540;8.574;2023-06-05T04:00:45;15.10;43.10
3348;DHT22;1687;49.540;8.574;2023-06-05T04:03:14;15.10;43.10
3348;DHT22;1687;49.540;8.574;2023-06-05T04:05:40;15.20;43.10
3348;DHT22;1687;49.540;8.574;2023-06-05T04:08:08;15.10;43.10
3348;DHT22;1687;49.540;8.574;2023-06-05T04:10:35;15.20;43.20
3348;DHT22;1687;49.540;8.574;2023-06-05T04:13:01;15.20;43.10
3348;DHT22;1687;49.540;8.574;2023-06-05T04:15:28;15.20;43.10
3348;DHT22;1687;49.540;8.574;2023-06-05T04:17:54;15.30;43.30
3348;DHT22;1687;49.540;8.574;2023-06-05T04:20:20;15.40;43.30
3348;DHT22;1687;49.540;8.574;2023-06-05T04:22:46;15.40;43.10
3348;DHT22;1687;49.540;8.574;2023-06-05T04:25:12;15.30;43.00
3348;DHT22;1687;49.540;8.574;2023-06-05T04:27:39;15.30;43.20
3348;DHT22;1687;49.540;8.574;2023-06-05T04:30:06;15.30;43.30
3348;DHT22;1687;49.540;8.574;2023-06-05T04:32:34;15.40;43.40
3348;DHT22;1687;49.540;8.574;2023-06-05T04:35:02;15.40;43.40
3348;DHT22;1687;49.540;8.574;2023-06-05T04:37:28;15.50;43.50
3348;DHT22;1687;49.540;8.574;2023-06-05T04:39:54;15.60;43.40
3348;DHT22;1687;49.540;8.574;2023-06-05T04:42:21;15.70;43.60
3348;DHT22;1687;49.540;8.574;2023-06-05T04:45:02;15.90;43.70
3348;DHT22;1687;49.540;8.574;2023-06-05T04:47:30;16.00;43.60
3348;DHT22;1687;49.540;8.574;2023-06-05T04:50:04;16.10;43.60
3348;DHT22;1687;49.540;8.574;2023-06-05T04:52:31;16.20;43.60
3348;DHT22;1687;49.540;8.574;2023-06-05T04:54:58;16.20;43.40
3348;DHT22;1687;49.540;8.574;2023-06-05T04:57:27;16.30;43.50
3348;DHT22;1687;49.540;8.574;2023-06-05T04:59:54;16.40;43.50
3348;DHT22;1687;49.540;8.574;2023-06-05T05:02:20;16.50;43.50
3348;DHT22;1687;49.540;8.574;2023-06-05T05:04:47;16.50;43.40
3348;DHT22;1687;49.540;8.574;2023-06-05T05:07:12;16.50;43.40
3348;DHT22;1687;49.540;8.574;2023-06-05T05:09:42;16.60;43.50
3348;DHT22;1687;49.540;8.574;2023-06-05T05:12:11;16.70;43.50
3348;DHT22;1687;49.540;8.574;2023-06-05T05:14:38;16.80;43.50
3348;DHT22;1687;49.540;8.574;2023-06-05T05:17:05;16.80;43.40
3348;DHT22;1687;49.540;8.574;2023-06-05T05:19:31;16.90;43.50
3348;DHT22;1687;49.540;8.574;2023-06-05T05:21:57;17.00;43.50
3348;DHT22;1687;49.540;8.574;2023-06-05T05:24:23;17.10;43.40
3348;DHT22;1687;49.540;8.574;2023-06-05T05:26:51;17.10;43.40
3348;DHT22;1687;49.540;8.574;2023-06-05T05:29:17;17.20;43.50
3348;DHT22;1687;49.540;8.574;2023-06-05T05:31:43;17.30;43.60
3348;DHT22;1687;49.540;8.574;2023-06-05T05:34:09;17.40;43.60
3348;DHT22;1687;49.540;8.574;2023-06-05T05:36:35;17.50;43.60
3348;DHT22;1687;49.540;8.574;2023-06-05T05:39:02;17.60;43.60
3348;DHT22;1687;49.540;8.574;2023-06-05T05:41:28;17.80;43.70
3348;DHT22;1687;49.540;8.574;2023-06-05T05:43:54;17.90;43.70
3348;DHT22;1687;49.540;8.574;2023-06-05T05:46:20;18.00;43.50
3348;DHT22;1687;49.540;8.574;2023-06-05T05:48:45;18.00;43.50
3348;DHT22;1687;49.540;8.574;2023-06-05T05:51:11;18.10;43.50
3348;DHT22;1687;49.540;8.574;2023-06-05T05:53:37;18.20;43.60
3348;DHT22;1687;49.540;8.574;2023-06-05T05:56:02;18.40;43.60
3348;DHT22;1687;49.540;8.574;2023-06-05T05:58:31;18.50;43.60
3348;DHT22;1687;49.540;8.574;2023-06-05T06:00:57;18.70;43.60
3348;DHT22;1687;49.540;8.574;2023-06-05T06:03:25;18.80;43.50
3348;DHT22;1687;49.540;8.574;2023-06-05T06:05:55;18.90;43.50
3348;DHT22;1687;49.540;8.574;2023-06-05T06:08:21;19.10;43.50
3348;DHT22;1687;49.540;8.574;2023-06-05T06:10:47;19.20;43.40
3348;DHT22;1687;49.540;8.574;2023-06-05T06:13:13;19.40;43.50
3348;DHT22;1687;49.540;8.574;2023-06-05T06:15:39;19.50;43.50
3348;DHT22;1687;49.540;8.574;2023-06-05T06:18:05;19.70;43.50
3348;DHT22;1687;49.540;8.574;2023-06-05T06:20:32;19.80;43.40
3348;DHT22;1687;49.540;8.574;2023-06-05T06:22:59;19.90;43.40
3348;DHT22;1687;49.540;8.574;2023-06-05T06:25:25;20.00;43.30
3348;DHT22;1687;49.540;8.574;2023-06-05T06:27:54;20.10;43.20
3348;DHT22;1687;49.540;8.574;2023-06-05T06:30:21;20.20;43.10
3348;DHT22;1687;49.540;8.574;2023-06-05T06:32:47;20.30;42.90
3348;DHT22;1687;49.540;8.574;2023-06-05T06:35:13;20.30;42.80
3348;DHT22;1687;49.540;8.574;2023-06-05T06:37:42;20.30;42.80
3348;DHT22;1687;49.540;8.574;2023-06-05T06:40:08;20.40;42.70
3348;DHT22;1687;49.540;8.574;2023-06-05T06:42:35;20.50;42.80
3348;DHT22;1687;49.540;8.574;2023-06-05T06:45:01;20.60;42.60
3348;DHT22;1687;49.540;8.574;2023-06-05T06:47:27;20.80;42.70
3348;DHT22;1687;49.540;8.574;2023-06-05T06:49:53;20.90;42.60
3348;DHT22;1687;49.540;8.574;2023-06-05T06:52:19;21.00;42.40
3348;DHT22;1687;49.540;8.574;2023-06-05T06:54:48;21.00;42.20
3348;DHT22;1687;49.540;8.574;2023-06-05T06:57:14;21.10;42.40
3348;DHT22;1687;49.540;8.574;2023-06-05T06:59:40;21.30;42.40
3348;DHT22;1687;49.540;8.574;2023-06-05T07:02:17;21.40;42.30
3348;DHT22;1687;49.540;8.574;2023-06-05T07:04:44;21.60;42.30
3348;DHT22;1687;49.540;8.574;2023-06-05T07:07:14;21.70;42.30
3348;DHT22;1687;49.540;8.574;2023-06-05T07:09:41;21.90;42.20
3348;DHT22;1687;49.540;8.574;2023-06-05T07:12:12;21.90;42.00
3348;DHT22;1687;49.540;8.574;2023-06-05T07:14:39;22.00;41.90
3348;DHT22;1687;49.540;8.574;2023-06-05T07:17:05;22.20;41.90
3348;DHT22;1687;49.540;8.574;2023-06-05T07:19:32;22.30;41.60
3348;DHT22;1687;49.540;8.574;2023-06-05T07:22:00;22.20;41.30
3348;DHT22;1687;49.540;8.574;2023-06-05T07:24:28;22.20;41.20
3348;DHT22;1687;49.540;8.574;2023-06-05T07:26:55;22.30;41.10
3348;DHT22;1687;49.540;8.574;2023-06-05T07:29:27;22.40;41.10
3348;DHT22;1687;49.540;8.574;2023-06-05T07:31:55;22.60;41.20
3348;DHT22;1687;49.540;8.574;2023-06-05T07:34:22;22.60;40.80
3348;DHT22;1687;49.540;8.574;2023-06-05T07:36:50;22.60;40.80
3348;DHT22;1687;49.540;8.574;2023-06-05T07:39:20;22.70;40.80
3348;DHT22;1687;49.540;8.574;2023-06-05T07:41:47;22.80;40.80
3348;DHT22;1687;49.540;8.574;2023-06-05T07:44:15;23.00;40.80
3348;DHT22;1687;49.540;8.574;2023-06-05T07:46:46;23.10;40.60
3348;DHT22;1687;49.540;8.574;2023-06-05T07:49:13;23.10;40.50
3348;DHT22;1687;49.540;8.574;2023-06-05T07:51:39;23.10;41.00
3348;DHT22;1687;49.540;8.574;2023-06-05T07:54:10;23.20;40.50
3348;DHT22;1687;49.540;8.574;2023-06-05T07:56:37;23.30;40.40
3348;DHT22;1687;49.540;8.574;2023-06-05T07:59:04;23.40;40.30
3348;DHT22;1687;49.540;8.574;2023-06-05T08:01:35;23.40;40.30
3348;DHT22;1687;49.540;8.574;2023-06-05T08:04:06;23.60;40.30
3348;DHT22;1687;49.540;8.574;2023-06-05T08:06:32;23.70;40.30
3348;DHT22;1687;49.540;8.574;2023-06-05T08:08:59;23.80;40.30
3348;DHT22;1687;49.540;8.574;2023-06-05T08:11:25;23.90;40.20
3348;DHT22;1687;49.540;8.574;2023-06-05T08:13:52;24.10;40.30
3348;DHT22;1687;49.540;8.574;2023-06-05T08:16:17;24.20;40.20
3348;DHT22;1687;49.540;8.574;2023-06-05T08:18:43;24.30;40.00
3348;DHT22;1687;49.540;8.574;2023-06-05T08:21:09;24.30;40.00
3348;DHT22;1687;49.540;8.574;2023-06-05T08:23:34;24.40;40.10
3348;DHT22;1687;49.540;8.574;2023-06-05T08:26:01;24.50;40.00
3348;DHT22;1687;49.540;8.574;2023-06-05T08:28:27;24.60;39.90
3348;DHT22;1687;49.540;8.574;2023-06-05T08:30:53;24.60;39.70
3348;DHT22;1687;49.540;8.574;2023-06-05T08:33:19;24.60;39.60
3348;DHT22;1687;49.540;8.574;2023-06-05T08:35:45;24.70;39.80
3348;DHT22;1687;49.540;8.574;2023-06-05T08:38:11;24.80;39.70
3348;DHT22;1687;49.540;8.574;2023-06-05T08:40:38;24.80;39.70
3348;DHT22;1687;49.540;8.574;2023-06-05T08:43:04;24.90;39.70
3348;DHT22;1687;49.540;8.574;2023-06-05T08:45:33;25.00;39.60
3348;DHT22;1687;49.540;8.574;2023-06-05T08:48:00;25.00;39.70
3348;DHT22;1687;49.540;8.574;2023-06-05T08:50:30;25.00;39.40
3348;DHT22;1687;49.540;8.574;2023-06-05T08:52:59;25.00;39.60
3348;DHT22;1687;49.540;8.574;2023-06-05T08:55:26;25.00;39.60
3348;DHT22;1687;49.540;8.574;2023-06-05T08:57:53;25.00;39.60
3348;DHT22;1687;49.540;8.574;2023-06-05T09:00:19;25.10;39.60
3348;DHT22;1687;49.540;8.574;2023-06-05T09:02:45;25.20;39.70
3348;DHT22;1687;49.540;8.574;2023-06-05T09:05:14;25.30;39.60
3348;DHT22;1687;49.540;8.574;2023-06-05T09:07:41;25.30;39.50
3348;DHT22;1687;49.540;8.574;2023-06-05T09:10:17;25.30;39.60
3348;DHT22;1687;49.540;8.574;2023-06-05T09:12:57;25.40;39.50
3348;DHT22;1687;49.540;8.574;2023-06-05T09:15:29;25.40;39.70
3348;DHT22;1687;49.540;8.574;2023-06-05T09:18:07;25.40;39.50
3348;DHT22;1687;49.540;8.574;2023-06-05T09:20:35;25.40;39.60
3348;DHT22;1687;49.540;8.574;2023-06-05T09:23:03;25.40;39.50
3348;DHT22;1687;49.540;8.574;2023-06-05T09:25:45;25.40;39.60
3348;DHT22;1687;49.540;8.574;2023-06-05T09:28:15;25.40;39.70
3348;DHT22;1687;49.540;8.574;2023-06-05T09:30:54;25.40;39.60
3348;DHT22;1687;49.540;8.574;2023-06-05T09:33:22;25.60;39.80
3348;DHT22;1687;49.540;8.574;2023-06-05T09:36:03;25.50;39.60
3348;DHT22;1687;49.540;8.574;2023-06-05T09:38:30;25.50;39.70
3348;DHT22;1687;49.540;8.574;2023-06-05T09:41:07;25.50;39.80
3348;DHT22;1687;49.540;8.574;2023-06-05T09:43:38;25.60;40.00
3348;DHT22;1687;49.540;8.574;2023-06-05T09:46:07;25.80;40.00
3348;DHT22;1687;49.540;8.574;2023-06-05T09:48:34;25.80;39.90
3348;DHT22;1687;49.540;8.574;2023-06-05T09:51:15;25.90;40.00
3348;DHT22;1687;49.540;8.574;2023-06-05T09:53:47;25.90;39.90
3348;DHT22;1687;49.540;8.574;2023-06-05T09:56:15;26.00;39.90
3348;DHT22;1687;49.540;8.574;2023-06-05T09:58:46;25.90;39.80
3348;DHT22;1687;49.540;8.574;2023-06-05T10:01:39;26.00;40.10
3348;DHT22;1687;49.540;8.574;2023-06-05T10:04:06;26.20;40.10
3348;DHT22;1687;49.540;8.574;2023-06-05T10:06:36;26.30;40.00
3348;DHT22;1687;49.540;8.574;2023-06-05T10:09:02;26.30;39.90
3348;DHT22;1687;49.540;8.574;2023-06-05T10:11:29;26.30;40.00
3348;DHT22;1687;49.540;8.574;2023-06-05T10:13:56;26.40;40.00
3348;DHT22;1687;49.540;8.574;2023-06-05T10:16:26;26.40;40.00
3348;DHT22;1687;49.540;8.574;2023-06-05T10:18:55;26.50;40.00
3348;DHT22;1687;49.540;8.574;2023-06-05T10:21:23;26.70;39.90
3348;DHT22;1687;49.540;8.574;2023-06-05T10:23:52;26.70;39.80
3348;DHT22;1687;49.540;8.574;2023-06-05T10:40:37;26.70;39.40
3348;DHT22;1687;49.540;8.574;2023-06-05T10:46:33;27.20;39.20
3348;DHT22;1687;49.540;8.574;2023-06-05T10:49:18;27.40;38.80
3348;DHT22;1687;49.540;8.574;2023-06-05T10:57:02;27.70;38.00
3348;DHT22;1687;49.540;8.574;2023-06-05T10:59:33;27.80;37.70
3348;DHT22;1687;49.540;8.574;2023-06-05T11:07:18;28.20;36.90
3348;DHT22;1687;49.540;8.574;2023-06-05T11:10:14;28.30;36.60
3348;DHT22;1687;49.540;8.574;2023-06-05T11:17:44;28.40;35.90
3348;DHT22;1687;49.540;8.574;2023-06-05T11:23:14;28.30;35.50
3348;DHT22;1687;49.540;8.574;2023-06-05T11:25:40;28.10;35.30
3348;DHT22;1687;49.540;8.574;2023-06-05T11:28:06;28.20;35.40
3348;DHT22;1687;49.540;8.574;2023-06-05T11:30:44;28.10;35.00
3348;DHT22;1687;49.540;8.574;2023-06-05T11:33:14;28.10;34.90
3348;DHT22;1687;49.540;8.574;2023-06-05T11:35:43;28.10;34.90
3348;DHT22;1687;49.540;8.574;2023-06-05T11:38:20;28.10;34.90
3348;DHT22;1687;49.540;8.574;2023-06-05T11:40:47;28.30;34.90
3348;DHT22;1687;49.540;8.574;2023-06-05T11:43:14;28.30;34.70
3348;DHT22;1687;49.540;8.574;2023-06-05T11:45:42;28.20;34.40
3348;DHT22;1687;49.540;8.574;2023-06-05T11:48:14;28.10;34.30
3348;DHT22;1687;49.540;8.574;2023-06-05T11:53:18;28.30;34.50
3348;DHT22;1687;49.540;8.574;2023-06-05T11:55:44;28.40;34.30
3348;DHT22;1687;49.540;8.574;2023-06-05T12:00:48;28.30;33.90
3348;DHT22;1687;49.540;8.574;2023-06-05T12:03:17;28.20;33.90
3348;DHT22;1687;49.540;8.574;2023-06-05T12:05:44;28.20;33.90
3348;DHT22;1687;49.540;8.574;2023-06-05T12:08:24;28.30;34.00
3348;DHT22;1687;49.540;8.574;2023-06-05T12:10:51;28.20;34.30
3348;DHT22;1687;49.540;8.574;2023-06-05T12:13:17;28.20;33.80
3348;DHT22;1687;49.540;8.574;2023-06-05T12:15:56;28.30;33.90
3348;DHT22;1687;49.540;8.574;2023-06-05T12:18:31;28.30;33.70
3348;DHT22;1687;49.540;8.574;2023-06-05T12:20:58;28.30;33.50
3348;DHT22;1687;49.540;8.574;2023-06-05T12:23:24;28.40;33.60
3348;DHT22;1687;49.540;8.574;2023-06-05T12:26:00;28.50;33.60
3348;DHT22;1687;49.540;8.574;2023-06-05T12:28:27;28.60;33.60
3348;DHT22;1687;49.540;8.574;2023-06-05T12:30:53;28.60;33.30
3348;DHT22;1687;49.540;8.574;2023-06-05T12:33:19;28.40;33.10
3348;DHT22;1687;49.540;8.574;2023-06-05T12:35:46;28.30;33.10
3348;DHT22;1687;49.540;8.574;2023-06-05T12:38:13;28.20;33.10
3348;DHT22;1687;49.540;8.574;2023-06-05T12:40:39;28.30;34.00
3348;DHT22;1687;49.540;8.574;2023-06-05T12:43:16;28.50;33.50
3348;DHT22;1687;49.540;8.574;2023-06-05T12:45:43;28.60;33.30
3348;DHT22;1687;49.540;8.574;2023-06-05T12:48:09;28.50;33.10
3348;DHT22;1687;49.540;8.574;2023-06-05T12:50:37;28.50;33.20
3348;DHT22;1687;49.540;8.574;2023-06-05T12:53:03;28.40;33.10
3348;DHT22;1687;49.540;8.574;2023-06-05T12:55:29;28.40;33.10
3348;DHT22;1687;49.540;8.574;2023-06-05T12:57:55;28.40;33.20
3348;DHT22;1687;49.540;8.574;2023-06-05T13:00:20;28.50;33.30
3348;DHT22;1687;49.540;8.574;2023-06-05T13:02:46;28.80;33.40
3348;DHT22;1687;49.540;8.574;2023-06-05T13:05:15;28.90;33.10
3348;DHT22;1687;49.540;8.574;2023-06-05T13:07:40;29.00;33.00
3348;DHT22;1687;49.540;8.574;2023-06-05T13:10:07;29.00;32.80
3348;DHT22;1687;49.540;8.574;2023-06-05T13:12:34;29.00;32.70
3348;DHT22;1687;49.540;8.574;2023-06-05T13:14:59;29.00;32.40
3348;DHT22;1687;49.540;8.574;2023-06-05T13:17:27;29.00;32.20
3348;DHT22;1687;49.540;8.574;2023-06-05T13:19:53;29.10;32.10
3348;DHT22;1687;49.540;8.574;2023-06-05T13:22:18;29.30;32.00
3348;DHT22;1687;49.540;8.574;2023-06-05T13:24:44;29.40;31.80
3348;DHT22;1687;49.540;8.574;2023-06-05T13:27:11;29.80;31.90
3348;DHT22;1687;49.540;8.574;2023-06-05T13:29:37;30.40;32.00
3348;DHT22;1687;49.540;8.574;2023-06-05T13:32:02;31.20;32.00
3348;DHT22;1687;49.540;8.574;2023-06-05T13:34:28;32.50;32.80
3348;DHT22;1687;49.540;8.574;2023-06-05T13:36:54;33.70;31.80
3348;DHT22;1687;49.540;8.574;2023-06-05T13:39:20;34.70;31.30
3348;DHT22;1687;49.540;8.574;2023-06-05T13:41:45;35.60;30.80
3348;DHT22;1687;49.540;8.574;2023-06-05T13:44:11;36.70;30.70
3348;DHT22;1687;49.540;8.574;2023-06-05T13:46:37;37.70;30.00
3348;DHT22;1687;49.540;8.574;2023-06-05T13:49:02;38.60;30.10
3348;DHT22;1687;49.540;8.574;2023-06-05T13:51:28;39.50;29.40
3348;DHT22;1687;49.540;8.574;2023-06-05T13:53:53;39.80;28.60
3348;DHT22;1687;49.540;8.574;2023-06-05T13:56:22;40.00;28.30
3348;DHT22;1687;49.540;8.574;2023-06-05T13:58:48;40.50;28.30
3348;DHT22;1687;49.540;8.574;2023-06-05T14:01:13;41.10;27.90
3348;DHT22;1687;49.540;8.574;2023-06-05T14:03:39;41.50;27.50
3348;DHT22;1687;49.540;8.574;2023-06-05T14:06:05;41.90;27.30
3348;DHT22;1687;49.540;8.574;2023-06-05T14:08:31;42.10;27.00
3348;DHT22;1687;49.540;8.574;2023-06-05T14:10:58;42.60;26.90
3348;DHT22;1687;49.540;8.574;2023-06-05T14:13:24;42.80;26.10
3348;DHT22;1687;49.540;8.574;2023-06-05T14:15:50;42.70;26.20
3348;DHT22;1687;49.540;8.574;2023-06-05T14:18:15;43.00;26.20
3348;DHT22;1687;49.540;8.574;2023-06-05T14:20:41;43.50;26.10
3348;DHT22;1687;49.540;8.574;2023-06-05T14:23:07;43.90;25.60
3348;DHT22;1687;49.540;8.574;2023-06-05T14:25:33;44.00;25.60
3348;DHT22;1687;49.540;8.574;2023-06-05T14:27:58;44.60;25.60
3348;DHT22;1687;49.540;8.574;2023-06-05T14:30:25;45.10;25.20
3348;DHT22;1687;49.540;8.574;2023-06-05T14:32:54;45.30;24.80
3348;DHT22;1687;49.540;8.574;2023-06-05T14:35:20;45.50;24.90
3348;DHT22;1687;49.540;8.574;2023-06-05T14:37:48;45.90;24.60
3348;DHT22;1687;49.540;8.574;2023-06-05T14:40:13;46.00;24.50
3348;DHT22;1687;49.540;8.574;2023-06-05T14:42:39;46.50;24.60
3348;DHT22;1687;49.540;8.574;2023-06-05T14:45:05;47.00;24.30
3348;DHT22;1687;49.540;8.574;2023-06-05T14:47:31;47.30;23.90
3348;DHT22;1687;49.540;8.574;2023-06-05T14:49:58;47.40;24.00
3348;DHT22;1687;49.540;8.574;2023-06-05T14:52:24;47.50;23.80
3348;DHT22;1687;49.540;8.574;2023-06-05T14:54:49;47.80;23.60
3348;DHT22;1687;49.540;8.574;2023-06-05T14:57:15;47.60;23.20
3348;DHT22;1687;49.540;8.574;2023-06-05T14:59:41;47.10;23.00
3348;DHT22;1687;49.540;8.574;2023-06-05T15:02:07;46.80;23.00
3348;DHT22;1687;49.540;8.574;2023-06-05T15:04:32;47.10;23.20
3348;DHT22;1687;49.540;8.574;2023-06-05T15:06:59;46.90;22.80
3348;DHT22;1687;49.540;8.574;2023-06-05T15:09:25;46.60;22.70
3348;DHT22;1687;49.540;8.574;2023-06-05T15:11:51;46.30;22.50
3348;DHT22;1687;49.540;8.574;2023-06-05T15:14:18;46.30;22.70
3348;DHT22;1687;49.540;8.574;2023-06-05T15:16:44;46.70;22.80
3348;DHT22;1687;49.540;8.574;2023-06-05T15:19:10;46.80;22.60
3348;DHT22;1687;49.540;8.574;2023-06-05T15:21:37;47.20;22.60
3348;DHT22;1687;49.540;8.574;2023-06-05T15:24:02;47.40;22.50
3348;DHT22;1687;49.540;8.574;2023-06-05T15:26:28;47.50;22.20
3348;DHT22;1687;49.540;8.574;2023-06-05T15:28:54;47.50;22.20
3348;DHT22;1687;49.540;8.574;2023-06-05T15:31:20;47.60;22.20
3348;DHT22;1687;49.540;8.574;2023-06-05T15:33:45;47.20;21.90
3348;DHT22;1687;49.540;8.574;2023-06-05T15:36:11;47.30;22.10
3348;DHT22;1687;49.540;8.574;2023-06-05T15:38:36;46.90;21.90
3348;DHT22;1687;49.540;8.574;2023-06-05T15:41:02;46.80;21.90
3348;DHT22;1687;49.540;8.574;2023-06-05T15:43:28;46.60;21.80
3348;DHT22;1687;49.540;8.574;2023-06-05T15:45:54;46.60;21.80
3348;DHT22;1687;49.540;8.574;2023-06-05T15:48:20;45.80;21.30
3348;DHT22;1687;49.540;8.574;2023-06-05T15:50:47;45.30;21.40
3348;DHT22;1687;49.540;8.574;2023-06-05T15:53:13;44.70;21.40
3348;DHT22;1687;49.540;8.574;2023-06-05T15:55:40;44.60;21.60
3348;DHT22;1687;49.540;8.574;2023-06-05T15:58:08;44.40;21.40
3348;DHT22;1687;49.540;8.574;2023-06-05T16:00:36;43.60;21.30
3348;DHT22;1687;49.540;8.574;2023-06-05T16:03:02;42.20;21.30
3348;DHT22;1687;49.540;8.574;2023-06-05T16:05:27;40.60;21.30
3348;DHT22;1687;49.540;8.574;2023-06-05T16:07:53;39.20;21.60
3348;DHT22;1687;49.540;8.574;2023-06-05T16:10:19;38.30;21.90
3348;DHT22;1687;49.540;8.574;2023-06-05T16:12:45;37.50;22.10
3348;DHT22;1687;49.540;8.574;2023-06-05T16:15:11;36.70;22.10
3348;DHT22;1687;49.540;8.574;2023-06-05T16:17:39;36.00;22.20
3348;DHT22;1687;49.540;8.574;2023-06-05T16:20:07;35.10;22.40
3348;DHT22;1687;49.540;8.574;2023-06-05T16:22:33;34.50;22.60
3348;DHT22;1687;49.540;8.574;2023-06-05T16:24:59;34.20;22.80
3348;DHT22;1687;49.540;8.574;2023-06-05T16:27:25;33.90;22.90
3348;DHT22;1687;49.540;8.574;2023-06-05T16:29:52;33.40;22.90
3348;DHT22;1687;49.540;8.574;2023-06-05T16:32:18;32.90;23.10
3348;DHT22;1687;49.540;8.574;2023-06-05T16:34:44;32.80;23.40
3348;DHT22;1687;49.540;8.574;2023-06-05T16:37:10;32.50;23.40
3348;DHT22;1687;49.540;8.574;2023-06-05T16:39:35;32.30;23.60
3348;DHT22;1687;49.540;8.574;2023-06-05T16:42:02;32.00;23.70
3348;DHT22;1687;49.540;8.574;2023-06-05T16:44:29;31.60;23.70
3348;DHT22;1687;49.540;8.574;2023-06-05T16:46:55;31.30;24.10
3348;DHT22;1687;49.540;8.574;2023-06-05T16:49:21;31.00;24.30